Miguel Torga — CSKE — position and weather

sailwx.info

Track history (hours):
 
Tides and Currents Weather Stations Pressure Air Temp Water Temp Dewpoint Dewpoint Depression Visibility Wind Speed Wind Dir Waves Ship Positions

Miguel Torga

Last reported at 2018-Jul-22 18:00 UTC. Time now 2018-Jul-22 18:04 UTC.
Position N 38°41' W 009°08'.

Length 50 m.

Type: Ship. MMSI: 263701370.

Date/timePositionNaut miles runAvg speedWind from/ knotsBaromVisibWave heightAir tempDewpointWater temp
2018-Jul-22 18:00N 38°41' W 009°08'2 3.9
2018-Jul-22 17:30N 38°40' W 009°06'2 3.9
2018-Jul-22 17:01N 38°41' W 009°08'2 4.3
2018-Jul-22 16:30N 38°39' W 009°06'2 4.7
2018-Jul-22 16:01N 38°41' W 009°08'0 0.1
2018-Jul-22 15:01N 38°41' W 009°08'2 4.3
2018-Jul-22 14:30N 38°40' W 009°06'2 4.4
2018-Jul-22 14:00N 38°41' W 009°08'3 5.4
2018-Jul-22 13:31N 38°39' W 009°06'3 6.2
2018-Jul-22 13:00N 38°42' W 009°08'4 7.1
2018-Jul-22 12:30N 38°39' W 009°05'0 0.4
2018-Jul-22 12:00N 38°39' W 009°05'0 0.0
2018-Jul-22 06:38N 38°39' W 009°05'0 2.3
2018-Jul-22 06:30N 38°39' W 009°05'2 5.1
2018-Jul-22 06:00N 38°41' W 009°08'2 4.1
2018-Jul-22 05:30N 38°39' W 009°06'3 5.3
2018-Jul-22 05:01N 38°41' W 009°08'3 6.5
2018-Jul-22 04:30N 38°39' W 009°05'0 0.0
2018-Jul-22 04:00N 38°39' W 009°05'0 0.0
2018-Jul-22 03:30N 38°39' W 009°05'0 0.0
2018-Jul-22 03:00N 38°39' W 009°05'0 0.0
2018-Jul-22 02:30N 38°39' W 009°05'0 0.0
2018-Jul-22 02:01N 38°39' W 009°05'0 0.0
2018-Jul-22 01:31N 38°39' W 009°05'0 0.0
2018-Jul-22 01:00N 38°39' W 009°05'0 0.0
2018-Jul-22 00:30N 38°39' W 009°05'0 0.0
2018-Jul-22 00:00N 38°39' W 009°05'0 0.0
2018-Jul-21 23:30N 38°39' W 009°05'0 0.0
2018-Jul-21 23:00N 38°39' W 009°05'0 0.0
2018-Jul-21 22:30N 38°39' W 009°05'0 0.0
2018-Jul-21 22:00N 38°39' W 009°05'0 0.0
2018-Jul-21 20:49N 38°39' W 009°05'310.7
2018-Jul-21 20:30N 38°41' W 009°08'2 4.9
2018-Jul-21 20:01N 38°39' W 009°06'1 2.1
2018-Jul-21 19:30N 38°39' W 009°05'3 6.3
2018-Jul-21 19:01N 38°41' W 009°08'2 4.2
2018-Jul-21 18:30N 38°40' W 009°06'2 4.8
2018-Jul-21 18:01N 38°41' W 009°08'3 5.1
2018-Jul-21 17:30N 38°39' W 009°06'2 4.8
2018-Jul-21 17:00N 38°41' W 009°08'2 4.6
2018-Jul-21 16:30N 38°40' W 009°06'2 4.6
2018-Jul-21 16:01N 38°41' W 009°08'2 4.7
2018-Jul-21 15:30N 38°39' W 009°06'2 4.8
2018-Jul-21 15:00N 38°41' W 009°08'2 4.7
2018-Jul-21 14:30N 38°39' W 009°06'2 4.5
2018-Jul-21 14:01N 38°41' W 009°08'2 4.8
2018-Jul-21 13:31N 38°39' W 009°06'3 5.5
2018-Jul-21 13:01N 38°42' W 009°08'3 5.7
2018-Jul-21 12:30N 38°39' W 009°06'1 1.6
2018-Jul-21 12:00N 38°39' W 009°05'0 0.0
2018-Jul-21 11:30N 38°39' W 009°05'0 0.0
2018-Jul-21 11:00N 38°39' W 009°05'0 0.0
2018-Jul-21 10:30N 38°39' W 009°05'0 0.0
2018-Jul-21 10:00N 38°39' W 009°05'3 6.8
2018-Jul-21 09:30N 38°41' W 009°08'3 5.0
2018-Jul-21 09:00N 38°39' W 009°06'2 4.7
2018-Jul-21 08:30N 38°41' W 009°08'2 4.9
2018-Jul-21 08:00N 38°39' W 009°06'2 5.0
2018-Jul-21 07:30N 38°41' W 009°08'2 4.9
2018-Jul-21 07:00N 38°39' W 009°06'1 1.1
2018-Jul-21 06:30N 38°39' W 009°05'3 5.1
2018-Jul-21 06:00N 38°41' W 009°08'2 3.3
2018-Jul-21 05:30N 38°40' W 009°06'2 4.0
2018-Jul-21 05:00N 38°41' W 009°08'3 6.3
2018-Jul-21 04:30N 38°39' W 009°05'0 0.0
2018-Jul-20 22:50N 38°39' W 009°05'413.0
2018-Jul-20 22:30N 38°42' W 009°08'4 8.3
2018-Jul-20 22:00N 38°39' W 009°05'4 8.3
2018-Jul-20 21:30N 38°42' W 009°08'4 8.2
2018-Jul-20 21:00N 38°39' W 009°05'3 6.7
2018-Jul-20 20:30N 38°41' W 009°08'3 6.4
2018-Jul-20 20:00N 38°39' W 009°05'0 0.0
2018-Jul-20 19:30N 38°39' W 009°05'4 8.3
2018-Jul-20 19:00N 38°42' W 009°08'4 8.2
2018-Jul-20 18:30N 38°39' W 009°05'4 8.6
2018-Jul-20 18:00N 38°42' W 009°08'4 8.3
2018-Jul-20 17:30N 38°39' W 009°05'4 8.1
2018-Jul-20 17:00N 38°42' W 009°08'3 5.5
2018-Jul-20 16:31N 38°40' W 009°07'1 1.9
2018-Jul-20 16:01N 38°40' W 009°07'2 4.6
2018-Jul-20 15:30N 38°39' W 009°05'0 0.0
2018-Jul-20 15:00N 38°39' W 009°05'0 0.0
2018-Jul-20 08:41N 38°39' W 009°05'2 9.4
2018-Jul-20 08:30N 38°40' W 009°07'1 1.1
2018-Jul-20 08:00N 38°40' W 009°06'3 6.5
2018-Jul-20 07:30N 38°42' W 009°08'4 8.3
2018-Jul-20 07:00N 38°39' W 009°05'4 7.7
2018-Jul-20 06:31N 38°42' W 009°08'4 7.3
2018-Jul-20 06:00N 38°39' W 009°05'0 0.0
2018-Jul-19 19:59N 38°39' W 009°05'4 8.5
2018-Jul-19 19:30N 38°42' W 009°08'4 8.3
2018-Jul-19 19:00N 38°39' W 009°05'4 8.0
2018-Jul-19 18:31N 38°42' W 009°08'4 7.6
2018-Jul-19 18:00N 38°39' W 009°05'2 4.5
2018-Jul-19 17:30N 38°41' W 009°07'1 1.6
2018-Jul-19 17:00N 38°41' W 009°08'3 6.4
2018-Jul-19 16:30N 38°39' W 009°05'0 0.0
2018-Jul-19 16:00N 38°39' W 009°05'4 8.1
2018-Jul-19 15:30N 38°42' W 009°08'4 8.4
2018-Jul-19 15:00N 38°39' W 009°05'3 6.8
2018-Jul-19 14:30N 38°41' W 009°08'0 0.3
2018-Jul-19 13:30N 38°42' W 009°08'3 5.3
2018-Jul-19 13:01N 38°40' W 009°06'2 4.8
2018-Jul-19 12:30N 38°41' W 009°08'3 5.3
2018-Jul-19 12:00N 38°39' W 009°06'3 5.6
2018-Jul-19 11:30N 38°42' W 009°08'3 5.7
2018-Jul-19 11:00N 38°39' W 009°06'3 6.1
2018-Jul-19 10:30N 38°42' W 009°08'3 6.2
2018-Jul-19 10:00N 38°39' W 009°06'1 1.5
2018-Jul-19 09:30N 38°39' W 009°05'0 0.1
2018-Jul-19 09:01N 38°39' W 009°05'4 8.3
2018-Jul-19 08:31N 38°42' W 009°08'4 8.2
2018-Jul-19 08:00N 38°39' W 009°05'4 7.6
2018-Jul-19 07:31N 38°42' W 009°08'2 4.9
2018-Jul-19 07:01N 38°40' W 009°07'1 1.5
2018-Jul-19 06:30N 38°39' W 009°06'1 1.5
2018-Jul-19 06:00N 38°39' W 009°05'0 0.0
2018-Jul-19 05:30N 38°39' W 009°05'0 0.0
2018-Jul-18 19:56N 38°39' W 009°05'4 9.5
2018-Jul-18 19:30N 38°42' W 009°08'4 8.5
2018-Jul-18 19:00N 38°39' W 009°05'4 8.3
2018-Jul-18 18:31N 38°42' W 009°08'4 7.7
2018-Jul-18 18:00N 38°39' W 009°05'2 4.3
2018-Jul-18 17:31N 38°40' W 009°07'1 2.4
2018-Jul-18 17:00N 38°42' W 009°08'3 6.7
2018-Jul-18 16:30N 38°39' W 009°05'0 0.0
2018-Jul-18 16:00N 38°39' W 009°05'4 8.4
2018-Jul-18 15:30N 38°42' W 009°08'4 8.3
2018-Jul-18 15:00N 38°39' W 009°05'3 7.0
2018-Jul-18 14:30N 38°41' W 009°08'0 0.2
2018-Jul-18 13:30N 38°42' W 009°08'3 5.4
2018-Jul-18 13:01N 38°39' W 009°06'2 4.8
2018-Jul-18 12:30N 38°41' W 009°08'3 5.2
2018-Jul-18 12:00N 38°39' W 009°06'3 5.9
2018-Jul-18 11:31N 38°42' W 009°08'0 0.1
2018-Jul-18 10:30N 38°42' W 009°08'3 6.0
2018-Jul-18 10:00N 38°39' W 009°06'1 1.5
2018-Jul-18 09:30N 38°39' W 009°05'0 0.1
2018-Jul-18 08:58N 38°39' W 009°05'2 3.5
2018-Jul-18 08:31N 38°40' W 009°07'1 2.8
2018-Jul-18 08:00N 38°39' W 009°05'4 8.0
2018-Jul-18 07:31N 38°42' W 009°08'4 8.3
2018-Jul-18 07:01N 38°39' W 009°05'3 6.1
2018-Jul-18 06:31N 38°41' W 009°08'3 5.9
2018-Jul-18 06:00N 38°39' W 009°05'0 0.0
2018-Jul-18 05:28N 38°39' W 009°05'0 0.0
2018-Jul-17 18:49N 38°39' W 009°05'413.0
2018-Jul-17 18:30N 38°42' W 009°08'4 8.4
2018-Jul-17 18:00N 38°39' W 009°05'4 8.1
2018-Jul-17 17:30N 38°42' W 009°08'2 4.9
2018-Jul-17 17:00N 38°40' W 009°07'1 1.3
2018-Jul-17 16:31N 38°40' W 009°06'3 5.9
2018-Jul-17 16:00N 38°42' W 009°08'4 8.4
2018-Jul-17 15:30N 38°39' W 009°05'3 6.1
2018-Jul-17 15:00N 38°41' W 009°08'2 4.4
2018-Jul-17 14:30N 38°39' W 009°06'1 1.7
2018-Jul-17 14:00N 38°39' W 009°05'0 0.0
2018-Jul-17 09:46N 38°39' W 009°05'0 0.3
2018-Jul-17 09:29N 38°39' W 009°05'3 7.0
2018-Jul-17 09:00N 38°41' W 009°08'3 5.4
2018-Jul-17 08:30N 38°39' W 009°06'1 1.7
2018-Jul-17 08:00N 38°40' W 009°07'0 0.8
2018-Jul-17 07:31N 38°40' W 009°06'3 6.2
2018-Jul-17 07:00N 38°42' W 009°08'4 8.4
2018-Jul-17 06:30N 38°39' W 009°05'4 8.3
2018-Jul-17 06:00N 38°42' W 009°08'4 8.4
2018-Jul-17 05:31N 38°39' W 009°05'3 6.4
2018-Jul-17 05:01N 38°41' W 009°08'3 6.3
2018-Jul-17 04:30N 38°39' W 009°05'0 0.0
2018-Jul-16 23:25N 38°39' W 009°05'0 0.0
2018-Jul-16 23:00N 38°39' W 009°05'4 8.4
2018-Jul-16 22:30N 38°42' W 009°08'4 8.3
2018-Jul-16 22:01N 38°39' W 009°05'4 8.3
2018-Jul-16 21:30N 38°42' W 009°08'4 8.3
2018-Jul-16 21:00N 38°39' W 009°05'3 6.7
2018-Jul-16 20:30N 38°41' W 009°08'3 6.7
2018-Jul-16 20:01N 38°39' W 009°05'0 0.0
2018-Jul-16 19:30N 38°39' W 009°05'4 8.3
2018-Jul-16 19:00N 38°42' W 009°08'4 8.4
2018-Jul-16 18:31N 38°39' W 009°05'4 8.4
2018-Jul-16 18:01N 38°42' W 009°08'4 8.3
2018-Jul-16 17:30N 38°39' W 009°05'4 7.5
2018-Jul-16 17:01N 38°42' W 009°08'2 4.3
2018-Jul-16 16:30N 38°40' W 009°07'1 1.1
2018-Jul-16 16:00N 38°40' W 009°08'2 4.7
2018-Jul-16 15:30N 38°39' W 009°05'0 0.0
2018-Jul-16 15:00N 38°39' W 009°05'0 0.0
2018-Jul-16 14:29N 38°39' W 009°05'0 0.0
2018-Jul-16 13:58N 38°39' W 009°05'0 0.0
2018-Jul-16 13:30N 38°39' W 009°05'0 0.0
2018-Jul-16 13:00N 38°39' W 009°05'0 0.0
2018-Jul-16 12:29N 38°39' W 009°05'0 0.0
2018-Jul-16 11:58N 38°39' W 009°05'0 0.0
2018-Jul-16 11:30N 38°39' W 009°05'0 0.0
2018-Jul-16 11:00N 38°39' W 009°05'0 0.0
2018-Jul-16 10:30N 38°39' W 009°05'0 0.0
2018-Jul-16 10:01N 38°39' W 009°05'3 6.2
2018-Jul-16 09:31N 38°41' W 009°08'3 5.2
2018-Jul-16 09:00N 38°39' W 009°06'1 1.4
2018-Jul-16 08:30N 38°39' W 009°05'3 6.3
2018-Jul-16 08:01N 38°41' W 009°08'3 6.3
2018-Jul-16 07:31N 38°39' W 009°05'4 8.2
2018-Jul-16 07:00N 38°42' W 009°08'4 8.3
2018-Jul-16 06:30N 38°39' W 009°05'4 7.9
2018-Jul-16 06:00N 38°42' W 009°08'4 7.7
2018-Jul-16 05:30N 38°39' W 009°05'0 0.0
2018-Jul-15 10:12N 38°39' W 009°05'315.6
2018-Jul-15 10:00N 38°42' W 009°08'3 5.5
2018-Jul-15 09:30N 38°39' W 009°06'3 5.3
2018-Jul-15 09:00N 38°41' W 009°08'3 5.9
2018-Jul-15 08:30N 38°39' W 009°05'3 5.9
2018-Jul-15 08:01N 38°41' W 009°08'2 5.0
2018-Jul-15 07:30N 38°39' W 009°06'3 5.1
2018-Jul-15 07:00N 38°41' W 009°08'3 5.1
2018-Jul-15 06:30N 38°39' W 009°06'0 0.1
2018-Jul-15 06:00N 38°39' W 009°06'1 2.2
2018-Jul-15 05:30N 38°40' W 009°07'1 1.8
2018-Jul-15 05:01N 38°40' W 009°06'2 3.1
2018-Jul-15 04:31N 38°40' W 009°08'3 5.2
2018-Jul-15 04:01N 38°39' W 009°05'0 0.0
2018-Jul-15 03:30N 38°39' W 009°05'0 0.0
2018-Jul-15 03:01N 38°39' W 009°05'0 0.0
2018-Jul-15 02:29N 38°39' W 009°05'0 0.0
2018-Jul-15 02:00N 38°39' W 009°05'0 0.0
2018-Jul-15 01:30N 38°39' W 009°05'4 8.2
2018-Jul-15 00:59N 38°42' W 009°08'4 8.6
2018-Jul-15 00:30N 38°39' W 009°05'4 8.3
2018-Jul-15 00:00N 38°42' W 009°08'4 8.4
2018-Jul-14 23:30N 38°39' W 009°05'4 8.3
2018-Jul-14 23:00N 38°42' W 009°08'4 8.3
2018-Jul-14 22:30N 38°39' W 009°05'3 6.5
2018-Jul-14 22:01N 38°41' W 009°08'3 5.1
2018-Jul-14 21:30N 38°39' W 009°06'3 5.2
2018-Jul-14 21:00N 38°41' W 009°08'3 5.0
2018-Jul-14 20:30N 38°39' W 009°06'2 5.0
2018-Jul-14 20:01N 38°41' W 009°08'3 5.0
2018-Jul-14 19:30N 38°39' W 009°06'1 1.6
2018-Jul-14 19:00N 38°39' W 009°05'3 6.5
2018-Jul-14 18:30N 38°41' W 009°08'2 4.5
2018-Jul-14 18:00N 38°40' W 009°06'3 5.0
2018-Jul-14 17:30N 38°42' W 009°08'3 5.1
2018-Jul-14 17:00N 38°39' W 009°06'3 5.2
2018-Jul-14 16:30N 38°42' W 009°08'3 5.1
2018-Jul-14 16:00N 38°40' W 009°06'2 4.9
2018-Jul-14 15:30N 38°42' W 009°08'3 5.4
2018-Jul-14 15:00N 38°39' W 009°06'0 0.3
2018-Jul-14 14:00N 38°39' W 009°05'0 1.0
2018-Jul-14 13:30N 38°39' W 009°05'0 0.0
2018-Jul-14 13:00N 38°39' W 009°05'0 0.0
2018-Jul-14 12:30N 38°39' W 009°05'4 7.1
2018-Jul-14 12:00N 38°42' W 009°08'3 6.1
2018-Jul-14 11:30N 38°39' W 009°06'3 6.1
2018-Jul-14 11:00N 38°42' W 009°08'3 6.1
2018-Jul-14 10:30N 38°39' W 009°05'3 6.0
2018-Jul-14 10:00N 38°41' W 009°08'3 5.3
2018-Jul-14 09:30N 38°39' W 009°06'2 4.9
2018-Jul-14 09:01N 38°41' W 009°08'2 5.0
2018-Jul-14 08:30N 38°39' W 009°06'3 5.5
2018-Jul-14 08:00N 38°41' W 009°08'3 5.2
2018-Jul-14 07:30N 38°39' W 009°06'3 5.3
2018-Jul-14 07:00N 38°41' W 009°08'2 4.9
2018-Jul-14 06:30N 38°40' W 009°06'0 0.4
2018-Jul-14 06:01N 38°40' W 009°06'1 1.7
2018-Jul-14 05:30N 38°40' W 009°07'1 1.5
2018-Jul-14 05:00N 38°40' W 009°06'2 4.4
2018-Jul-14 04:31N 38°42' W 009°08'3 6.7
2018-Jul-14 04:00N 38°39' W 009°05'0 0.0
2018-Jul-14 01:22N 38°39' W 009°05'411.3
2018-Jul-14 01:00N 38°42' W 009°08'4 8.3
2018-Jul-14 00:30N 38°39' W 009°05'4 8.2
2018-Jul-14 00:00N 38°42' W 009°08'4 8.5
2018-Jul-13 23:30N 38°39' W 009°05'3 6.3
2018-Jul-13 23:00N 38°41' W 009°08'3 6.3
2018-Jul-13 22:30N 38°39' W 009°05'3 6.8
2018-Jul-13 22:00N 38°42' W 009°08'3 6.2
2018-Jul-13 21:28N 38°39' W 009°05'3 7.2
2018-Jul-13 21:00N 38°41' W 009°08'3 5.3
2018-Jul-13 20:30N 38°39' W 009°06'1 1.6
2018-Jul-13 20:00N 38°39' W 009°05'0 0.0
2018-Jul-13 19:30N 38°39' W 009°05'4 8.6
2018-Jul-13 19:00N 38°42' W 009°08'4 8.4
2018-Jul-13 18:31N 38°39' W 009°05'4 7.8
2018-Jul-13 18:00N 38°42' W 009°08'2 3.9
2018-Jul-13 17:30N 38°40' W 009°07'1 2.5
2018-Jul-13 17:01N 38°40' W 009°06'3 6.4
2018-Jul-13 16:30N 38°42' W 009°08'4 8.3
2018-Jul-13 16:01N 38°39' W 009°05'0 0.0
2018-Jul-13 08:16N 38°39' W 009°05'312.3
2018-Jul-13 08:00N 38°41' W 009°08'3 6.3
2018-Jul-13 07:30N 38°39' W 009°05'4 8.4
2018-Jul-13 07:00N 38°42' W 009°08'4 8.3
2018-Jul-13 06:30N 38°39' W 009°05'4 7.5
2018-Jul-13 06:01N 38°42' W 009°08'4 7.4
2018-Jul-13 05:30N 38°39' W 009°05'0 0.0
2018-Jul-12 20:31N 38°39' W 009°05'0 0.0
2018-Jul-12 20:30N 38°39' W 009°05'4 8.3
2018-Jul-12 20:01N 38°42' W 009°08'4 8.3
2018-Jul-12 19:30N 38°39' W 009°05'2 4.6
2018-Jul-12 19:00N 38°40' W 009°07'1 1.4
2018-Jul-12 18:31N 38°41' W 009°08'  
Track history (hours):
 
Tides and Currents Weather Stations Pressure Air Temp Water Temp Dewpoint Dewpoint Depression Visibility Wind Speed Wind Dir Waves Ship Positions

Miguel Torga

Last reported at 2018-Jul-22 18:00 UTC. Time now 2018-Jul-22 18:04 UTC.
Position N 38°41' W 009°08'.

Length 50 m.

Type: Ship. MMSI: 263701370.

Date/timePositionNaut miles runAvg speedWind from/ knotsBaromVisibWave heightAir tempDewpointWater temp
2018-Jul-22 18:00N 38°41' W 009°08'2 3.9
2018-Jul-22 17:30N 38°40' W 009°06'2 3.9
2018-Jul-22 17:01N 38°41' W 009°08'2 4.3
2018-Jul-22 16:30N 38°39' W 009°06'2 4.7
2018-Jul-22 16:01N 38°41' W 009°08'0 0.1
2018-Jul-22 15:01N 38°41' W 009°08'2 4.3
2018-Jul-22 14:30N 38°40' W 009°06'2 4.4
2018-Jul-22 14:00N 38°41' W 009°08'3 5.4
2018-Jul-22 13:31N 38°39' W 009°06'3 6.2
2018-Jul-22 13:00N 38°42' W 009°08'4 7.1
2018-Jul-22 12:30N 38°39' W 009°05'0 0.4
2018-Jul-22 12:00N 38°39' W 009°05'0 0.0
2018-Jul-22 06:38N 38°39' W 009°05'0 2.3
2018-Jul-22 06:30N 38°39' W 009°05'2 5.1
2018-Jul-22 06:00N 38°41' W 009°08'2 4.1
2018-Jul-22 05:30N 38°39' W 009°06'3 5.3
2018-Jul-22 05:01N 38°41' W 009°08'3 6.5
2018-Jul-22 04:30N 38°39' W 009°05'0 0.0
2018-Jul-22 04:00N 38°39' W 009°05'0 0.0
2018-Jul-22 03:30N 38°39' W 009°05'0 0.0
2018-Jul-22 03:00N 38°39' W 009°05'0 0.0
2018-Jul-22 02:30N 38°39' W 009°05'0 0.0
2018-Jul-22 02:01N 38°39' W 009°05'0 0.0
2018-Jul-22 01:31N 38°39' W 009°05'0 0.0
2018-Jul-22 01:00N 38°39' W 009°05'0 0.0
2018-Jul-22 00:30N 38°39' W 009°05'0 0.0
2018-Jul-22 00:00N 38°39' W 009°05'0 0.0
2018-Jul-21 23:30N 38°39' W 009°05'0 0.0
2018-Jul-21 23:00N 38°39' W 009°05'0 0.0
2018-Jul-21 22:30N 38°39' W 009°05'0 0.0
2018-Jul-21 22:00N 38°39' W 009°05'0 0.0
2018-Jul-21 20:49N 38°39' W 009°05'310.7
2018-Jul-21 20:30N 38°41' W 009°08'2 4.9
2018-Jul-21 20:01N 38°39' W 009°06'1 2.1
2018-Jul-21 19:30N 38°39' W 009°05'3 6.3
2018-Jul-21 19:01N 38°41' W 009°08'2 4.2
2018-Jul-21 18:30N 38°40' W 009°06'2 4.8
2018-Jul-21 18:01N 38°41' W 009°08'3 5.1
2018-Jul-21 17:30N 38°39' W 009°06'2 4.8
2018-Jul-21 17:00N 38°41' W 009°08'2 4.6
2018-Jul-21 16:30N 38°40' W 009°06'2 4.6
2018-Jul-21 16:01N 38°41' W 009°08'2 4.7
2018-Jul-21 15:30N 38°39' W 009°06'2 4.8
2018-Jul-21 15:00N 38°41' W 009°08'2 4.7
2018-Jul-21 14:30N 38°39' W 009°06'2 4.5
2018-Jul-21 14:01N 38°41' W 009°08'2 4.8
2018-Jul-21 13:31N 38°39' W 009°06'3 5.5
2018-Jul-21 13:01N 38°42' W 009°08'3 5.7
2018-Jul-21 12:30N 38°39' W 009°06'1 1.6
2018-Jul-21 12:00N 38°39' W 009°05'0 0.0
2018-Jul-21 11:30N 38°39' W 009°05'0 0.0
2018-Jul-21 11:00N 38°39' W 009°05'0 0.0
2018-Jul-21 10:30N 38°39' W 009°05'0 0.0
2018-Jul-21 10:00N 38°39' W 009°05'3 6.8
2018-Jul-21 09:30N 38°41' W 009°08'3 5.0
2018-Jul-21 09:00N 38°39' W 009°06'2 4.7
2018-Jul-21 08:30N 38°41' W 009°08'2 4.9
2018-Jul-21 08:00N 38°39' W 009°06'2 5.0
2018-Jul-21 07:30N 38°41' W 009°08'2 4.9
2018-Jul-21 07:00N 38°39' W 009°06'1 1.1
2018-Jul-21 06:30N 38°39' W 009°05'3 5.1
2018-Jul-21 06:00N 38°41' W 009°08'2 3.3
2018-Jul-21 05:30N 38°40' W 009°06'2 4.0
2018-Jul-21 05:00N 38°41' W 009°08'3 6.3
2018-Jul-21 04:30N 38°39' W 009°05'0 0.0
2018-Jul-20 22:50N 38°39' W 009°05'413.0
2018-Jul-20 22:30N 38°42' W 009°08'4 8.3
2018-Jul-20 22:00N 38°39' W 009°05'4 8.3
2018-Jul-20 21:30N 38°42' W 009°08'4 8.2
2018-Jul-20 21:00N 38°39' W 009°05'3 6.7
2018-Jul-20 20:30N 38°41' W 009°08'3 6.4
2018-Jul-20 20:00N 38°39' W 009°05'0 0.0
2018-Jul-20 19:30N 38°39' W 009°05'4 8.3
2018-Jul-20 19:00N 38°42' W 009°08'4 8.2
2018-Jul-20 18:30N 38°39' W 009°05'4 8.6
2018-Jul-20 18:00N 38°42' W 009°08'4 8.3
2018-Jul-20 17:30N 38°39' W 009°05'4 8.1
2018-Jul-20 17:00N 38°42' W 009°08'3 5.5
2018-Jul-20 16:31N 38°40' W 009°07'1 1.9
2018-Jul-20 16:01N 38°40' W 009°07'2 4.6
2018-Jul-20 15:30N 38°39' W 009°05'0 0.0
2018-Jul-20 15:00N 38°39' W 009°05'0 0.0
2018-Jul-20 08:41N 38°39' W 009°05'2 9.4
2018-Jul-20 08:30N 38°40' W 009°07'1 1.1
2018-Jul-20 08:00N 38°40' W 009°06'3 6.5
2018-Jul-20 07:30N 38°42' W 009°08'4 8.3
2018-Jul-20 07:00N 38°39' W 009°05'4 7.7
2018-Jul-20 06:31N 38°42' W 009°08'4 7.3
2018-Jul-20 06:00N 38°39' W 009°05'0 0.0
2018-Jul-19 19:59N 38°39' W 009°05'4 8.5
2018-Jul-19 19:30N 38°42' W 009°08'4 8.3
2018-Jul-19 19:00N 38°39' W 009°05'4 8.0
2018-Jul-19 18:31N 38°42' W 009°08'4 7.6
2018-Jul-19 18:00N 38°39' W 009°05'2 4.5
2018-Jul-19 17:30N 38°41' W 009°07'1 1.6
2018-Jul-19 17:00N 38°41' W 009°08'3 6.4
2018-Jul-19 16:30N 38°39' W 009°05'0 0.0
2018-Jul-19 16:00N 38°39' W 009°05'4 8.1
2018-Jul-19 15:30N 38°42' W 009°08'4 8.4
2018-Jul-19 15:00N 38°39' W 009°05'3 6.8
2018-Jul-19 14:30N 38°41' W 009°08'0 0.3
2018-Jul-19 13:30N 38°42' W 009°08'3 5.3
2018-Jul-19 13:01N 38°40' W 009°06'2 4.8
2018-Jul-19 12:30N 38°41' W 009°08'3 5.3
2018-Jul-19 12:00N 38°39' W 009°06'3 5.6
2018-Jul-19 11:30N 38°42' W 009°08'3 5.7
2018-Jul-19 11:00N 38°39' W 009°06'3 6.1
2018-Jul-19 10:30N 38°42' W 009°08'3 6.2
2018-Jul-19 10:00N 38°39' W 009°06'1 1.5
2018-Jul-19 09:30N 38°39' W 009°05'0 0.1
2018-Jul-19 09:01N 38°39' W 009°05'4 8.3
2018-Jul-19 08:31N 38°42' W 009°08'4 8.2
2018-Jul-19 08:00N 38°39' W 009°05'4 7.6
2018-Jul-19 07:31N 38°42' W 009°08'2 4.9
2018-Jul-19 07:01N 38°40' W 009°07'1 1.5
2018-Jul-19 06:30N 38°39' W 009°06'1 1.5
2018-Jul-19 06:00N 38°39' W 009°05'0 0.0
2018-Jul-19 05:30N 38°39' W 009°05'0 0.0
2018-Jul-18 19:56N 38°39' W 009°05'4 9.5
2018-Jul-18 19:30N 38°42' W 009°08'4 8.5
2018-Jul-18 19:00N 38°39' W 009°05'4 8.3
2018-Jul-18 18:31N 38°42' W 009°08'4 7.7
2018-Jul-18 18:00N 38°39' W 009°05'2 4.3
2018-Jul-18 17:31N 38°40' W 009°07'1 2.4
2018-Jul-18 17:00N 38°42' W 009°08'3 6.7
2018-Jul-18 16:30N 38°39' W 009°05'0 0.0
2018-Jul-18 16:00N 38°39' W 009°05'4 8.4
2018-Jul-18 15:30N 38°42' W 009°08'4 8.3
2018-Jul-18 15:00N 38°39' W 009°05'3 7.0
2018-Jul-18 14:30N 38°41' W 009°08'0 0.2
2018-Jul-18 13:30N 38°42' W 009°08'3 5.4
2018-Jul-18 13:01N 38°39' W 009°06'2 4.8
2018-Jul-18 12:30N 38°41' W 009°08'3 5.2
2018-Jul-18 12:00N 38°39' W 009°06'3 5.9
2018-Jul-18 11:31N 38°42' W 009°08'0 0.1
2018-Jul-18 10:30N 38°42' W 009°08'3 6.0
2018-Jul-18 10:00N 38°39' W 009°06'1 1.5
2018-Jul-18 09:30N 38°39' W 009°05'0 0.1
2018-Jul-18 08:58N 38°39' W 009°05'2 3.5
2018-Jul-18 08:31N 38°40' W 009°07'1 2.8
2018-Jul-18 08:00N 38°39' W 009°05'4 8.0
2018-Jul-18 07:31N 38°42' W 009°08'4 8.3
2018-Jul-18 07:01N 38°39' W 009°05'3 6.1
2018-Jul-18 06:31N 38°41' W 009°08'3 5.9
2018-Jul-18 06:00N 38°39' W 009°05'0 0.0
2018-Jul-18 05:28N 38°39' W 009°05'0 0.0
2018-Jul-17 18:49N 38°39' W 009°05'413.0
2018-Jul-17 18:30N 38°42' W 009°08'4 8.4
2018-Jul-17 18:00N 38°39' W 009°05'4 8.1
2018-Jul-17 17:30N 38°42' W 009°08'2 4.9
2018-Jul-17 17:00N 38°40' W 009°07'1 1.3
2018-Jul-17 16:31N 38°40' W 009°06'3 5.9
2018-Jul-17 16:00N 38°42' W 009°08'4 8.4
2018-Jul-17 15:30N 38°39' W 009°05'3 6.1
2018-Jul-17 15:00N 38°41' W 009°08'2 4.4
2018-Jul-17 14:30N 38°39' W 009°06'1 1.7
2018-Jul-17 14:00N 38°39' W 009°05'0 0.0
2018-Jul-17 09:46N 38°39' W 009°05'0 0.3
2018-Jul-17 09:29N 38°39' W 009°05'3 7.0
2018-Jul-17 09:00N 38°41' W 009°08'3 5.4
2018-Jul-17 08:30N 38°39' W 009°06'1 1.7
2018-Jul-17 08:00N 38°40' W 009°07'0 0.8
2018-Jul-17 07:31N 38°40' W 009°06'3 6.2
2018-Jul-17 07:00N 38°42' W 009°08'4 8.4
2018-Jul-17 06:30N 38°39' W 009°05'4 8.3
2018-Jul-17 06:00N 38°42' W 009°08'4 8.4
2018-Jul-17 05:31N 38°39' W 009°05'3 6.4
2018-Jul-17 05:01N 38°41' W 009°08'3 6.3
2018-Jul-17 04:30N 38°39' W 009°05'0 0.0
2018-Jul-16 23:25N 38°39' W 009°05'0 0.0
2018-Jul-16 23:00N 38°39' W 009°05'4 8.4
2018-Jul-16 22:30N 38°42' W 009°08'4 8.3
2018-Jul-16 22:01N 38°39' W 009°05'4 8.3
2018-Jul-16 21:30N 38°42' W 009°08'4 8.3
2018-Jul-16 21:00N 38°39' W 009°05'3 6.7
2018-Jul-16 20:30N 38°41' W 009°08'3 6.7
2018-Jul-16 20:01N 38°39' W 009°05'0 0.0
2018-Jul-16 19:30N 38°39' W 009°05'4 8.3
2018-Jul-16 19:00N 38°42' W 009°08'4 8.4
2018-Jul-16 18:31N 38°39' W 009°05'4 8.4
2018-Jul-16 18:01N 38°42' W 009°08'4 8.3
2018-Jul-16 17:30N 38°39' W 009°05'4 7.5
2018-Jul-16 17:01N 38°42' W 009°08'2 4.3
2018-Jul-16 16:30N 38°40' W 009°07'1 1.1
2018-Jul-16 16:00N 38°40' W 009°08'2 4.7
2018-Jul-16 15:30N 38°39' W 009°05'0 0.0
2018-Jul-16 15:00N 38°39' W 009°05'0 0.0
2018-Jul-16 14:29N 38°39' W 009°05'0 0.0
2018-Jul-16 13:58N 38°39' W 009°05'0 0.0
2018-Jul-16 13:30N 38°39' W 009°05'0 0.0
2018-Jul-16 13:00N 38°39' W 009°05'0 0.0
2018-Jul-16 12:29N 38°39' W 009°05'0 0.0
2018-Jul-16 11:58N 38°39' W 009°05'0 0.0
2018-Jul-16 11:30N 38°39' W 009°05'0 0.0
2018-Jul-16 11:00N 38°39' W 009°05'0 0.0
2018-Jul-16 10:30N 38°39' W 009°05'0 0.0
2018-Jul-16 10:01N 38°39' W 009°05'3 6.2
2018-Jul-16 09:31N 38°41' W 009°08'3 5.2
2018-Jul-16 09:00N 38°39' W 009°06'1 1.4
2018-Jul-16 08:30N 38°39' W 009°05'3 6.3
2018-Jul-16 08:01N 38°41' W 009°08'3 6.3
2018-Jul-16 07:31N 38°39' W 009°05'4 8.2
2018-Jul-16 07:00N 38°42' W 009°08'4 8.3
2018-Jul-16 06:30N 38°39' W 009°05'4 7.9
2018-Jul-16 06:00N 38°42' W 009°08'4 7.7
2018-Jul-16 05:30N 38°39' W 009°05'0 0.0
2018-Jul-15 10:12N 38°39' W 009°05'315.6
2018-Jul-15 10:00N 38°42' W 009°08'3 5.5
2018-Jul-15 09:30N 38°39' W 009°06'3 5.3
2018-Jul-15 09:00N 38°41' W 009°08'3 5.9
2018-Jul-15 08:30N 38°39' W 009°05'3 5.9
2018-Jul-15 08:01N 38°41' W 009°08'2 5.0
2018-Jul-15 07:30N 38°39' W 009°06'3 5.1
2018-Jul-15 07:00N 38°41' W 009°08'3 5.1
2018-Jul-15 06:30N 38°39' W 009°06'0 0.1
2018-Jul-15 06:00N 38°39' W 009°06'1 2.2
2018-Jul-15 05:30N 38°40' W 009°07'1 1.8
2018-Jul-15 05:01N 38°40' W 009°06'2 3.1
2018-Jul-15 04:31N 38°40' W 009°08'3 5.2
2018-Jul-15 04:01N 38°39' W 009°05'0 0.0
2018-Jul-15 03:30N 38°39' W 009°05'0 0.0
2018-Jul-15 03:01N 38°39' W 009°05'0 0.0
2018-Jul-15 02:29N 38°39' W 009°05'0 0.0
2018-Jul-15 02:00N 38°39' W 009°05'0 0.0
2018-Jul-15 01:30N 38°39' W 009°05'4 8.2
2018-Jul-15 00:59N 38°42' W 009°08'4 8.6
2018-Jul-15 00:30N 38°39' W 009°05'4 8.3
2018-Jul-15 00:00N 38°42' W 009°08'4 8.4
2018-Jul-14 23:30N 38°39' W 009°05'4 8.3
2018-Jul-14 23:00N 38°42' W 009°08'4 8.3
2018-Jul-14 22:30N 38°39' W 009°05'3 6.5
2018-Jul-14 22:01N 38°41' W 009°08'3 5.1
2018-Jul-14 21:30N 38°39' W 009°06'3 5.2
2018-Jul-14 21:00N 38°41' W 009°08'3 5.0
2018-Jul-14 20:30N 38°39' W 009°06'2 5.0
2018-Jul-14 20:01N 38°41' W 009°08'3 5.0
2018-Jul-14 19:30N 38°39' W 009°06'1 1.6
2018-Jul-14 19:00N 38°39' W 009°05'3 6.5
2018-Jul-14 18:30N 38°41' W 009°08'2 4.5
2018-Jul-14 18:00N 38°40' W 009°06'3 5.0
2018-Jul-14 17:30N 38°42' W 009°08'3 5.1
2018-Jul-14 17:00N 38°39' W 009°06'3 5.2
2018-Jul-14 16:30N 38°42' W 009°08'3 5.1
2018-Jul-14 16:00N 38°40' W 009°06'2 4.9
2018-Jul-14 15:30N 38°42' W 009°08'3 5.4
2018-Jul-14 15:00N 38°39' W 009°06'0 0.3
2018-Jul-14 14:00N 38°39' W 009°05'0 1.0
2018-Jul-14 13:30N 38°39' W 009°05'0 0.0
2018-Jul-14 13:00N 38°39' W 009°05'0 0.0
2018-Jul-14 12:30N 38°39' W 009°05'4 7.1
2018-Jul-14 12:00N 38°42' W 009°08'3 6.1
2018-Jul-14 11:30N 38°39' W 009°06'3 6.1
2018-Jul-14 11:00N 38°42' W 009°08'3 6.1
2018-Jul-14 10:30N 38°39' W 009°05'3 6.0
2018-Jul-14 10:00N 38°41' W 009°08'3 5.3
2018-Jul-14 09:30N 38°39' W 009°06'2 4.9
2018-Jul-14 09:01N 38°41' W 009°08'2 5.0
2018-Jul-14 08:30N 38°39' W 009°06'3 5.5
2018-Jul-14 08:00N 38°41' W 009°08'3 5.2
2018-Jul-14 07:30N 38°39' W 009°06'3 5.3
2018-Jul-14 07:00N 38°41' W 009°08'2 4.9
2018-Jul-14 06:30N 38°40' W 009°06'0 0.4
2018-Jul-14 06:01N 38°40' W 009°06'1 1.7
2018-Jul-14 05:30N 38°40' W 009°07'1 1.5
2018-Jul-14 05:00N 38°40' W 009°06'2 4.4
2018-Jul-14 04:31N 38°42' W 009°08'3 6.7
2018-Jul-14 04:00N 38°39' W 009°05'0 0.0
2018-Jul-14 01:22N 38°39' W 009°05'411.3
2018-Jul-14 01:00N 38°42' W 009°08'4 8.3
2018-Jul-14 00:30N 38°39' W 009°05'4 8.2
2018-Jul-14 00:00N 38°42' W 009°08'4 8.5
2018-Jul-13 23:30N 38°39' W 009°05'3 6.3
2018-Jul-13 23:00N 38°41' W 009°08'3 6.3
2018-Jul-13 22:30N 38°39' W 009°05'3 6.8
2018-Jul-13 22:00N 38°42' W 009°08'3 6.2
2018-Jul-13 21:28N 38°39' W 009°05'3 7.2
2018-Jul-13 21:00N 38°41' W 009°08'3 5.3
2018-Jul-13 20:30N 38°39' W 009°06'1 1.6
2018-Jul-13 20:00N 38°39' W 009°05'0 0.0
2018-Jul-13 19:30N 38°39' W 009°05'4 8.6
2018-Jul-13 19:00N 38°42' W 009°08'4 8.4
2018-Jul-13 18:31N 38°39' W 009°05'4 7.8
2018-Jul-13 18:00N 38°42' W 009°08'2 3.9
2018-Jul-13 17:30N 38°40' W 009°07'1 2.5
2018-Jul-13 17:01N 38°40' W 009°06'3 6.4
2018-Jul-13 16:30N 38°42' W 009°08'4 8.3
2018-Jul-13 16:01N 38°39' W 009°05'0 0.0
2018-Jul-13 08:16N 38°39' W 009°05'312.3
2018-Jul-13 08:00N 38°41' W 009°08'3 6.3
2018-Jul-13 07:30N 38°39' W 009°05'4 8.4
2018-Jul-13 07:00N 38°42' W 009°08'4 8.3
2018-Jul-13 06:30N 38°39' W 009°05'4 7.5
2018-Jul-13 06:01N 38°42' W 009°08'4 7.4
2018-Jul-13 05:30N 38°39' W 009°05'0 0.0
2018-Jul-12 20:31N 38°39' W 009°05'0 0.0
2018-Jul-12 20:30N 38°39' W 009°05'4 8.3
2018-Jul-12 20:01N 38°42' W 009°08'4 8.3
2018-Jul-12 19:30N 38°39' W 009°05'2 4.6
2018-Jul-12 19:00N 38°40' W 009°07'1 1.4
2018-Jul-12 18:31N 38°41' W 009°08'  

Dump ship's entire track history